Time;durP1;ratioP1;P1;durP2;ratioP2;P2;SDS_P1;SDS_P2;PMS_P1;PMS_P2;Temp;Humidity;BMP_temperature;BMP_pressure;BME280_temperature;BME280_humidity;BME280_pressure;Samples;Min_cycle;Max_cycle;Signal;HPM_P1;HPM_P2
2022/06/07 00:00:23;;;;;;;4.13;2.72;;;;;;;;;;7331002;19;154081;-16
2022/06/07 00:02:54;;;;;;;4.97;2.67;;;;;;;;;;7330870;19;153668;-17
2022/06/07 00:05:25;;;;;;;3.05;2.35;;;;;;;;;;7330256;19;161837;-17
2022/06/07 00:07:56;;;;;;;3.85;2.67;;;;;;;;;;7330307;19;162436;-16
2022/06/07 00:10:29;;;;;;;2.50;2.28;;;;;;;;;;7330767;19;154125;-16
2022/06/07 00:13:03;;;;;;;5.57;2.53;;;;;;;;;;7330289;19;153060;-16
2022/06/07 00:15:34;;;;;;;3.90;2.60;;;;;;;;;;7329906;19;162107;-17
2022/06/07 00:18:06;;;;;;;2.53;2.30;;;;;;;;;;7327552;19;162556;-15
2022/06/07 00:20:38;;;;;;;3.83;2.50;;;;;;;;;;7330255;19;154086;-16
2022/06/07 00:23:12;;;;;;;2.77;2.30;;;;;;;;;;7330178;19;153821;-17
2022/06/07 00:25:46;;;;;;;2.95;2.08;;;;;;;;;;7328447;19;162024;-17
2022/06/07 00:28:20;;;;;;;2.90;2.45;;;;;;;;;;7329684;19;162375;-16
2022/06/07 00:30:53;;;;;;;5.95;2.63;;;;;;;;;;7328926;19;154148;-16
2022/06/07 00:33:26;;;;;;;3.28;2.08;;;;;;;;;;7332916;19;153528;-16
2022/06/07 00:35:58;;;;;;;4.40;2.17;;;;;;;;;;7328220;19;161809;-17
2022/06/07 00:38:30;;;;;;;3.80;2.83;;;;;;;;;;7328261;19;162406;-16
2022/06/07 00:41:03;;;;;;;3.95;2.30;;;;;;;;;;7328538;19;155054;-16
2022/06/07 00:43:37;;;;;;;;;;;;;;;;;;7329991;19;153425;-17
2022/06/07 00:46:09;;;;;;;4.78;2.42;;;;;;;;;;7331395;19;162219;-17
2022/06/07 00:48:41;;;;;;;2.90;2.55;;;;;;;;;;7329042;19;162648;-16
2022/06/07 00:51:15;;;;;;;3.45;2.15;;;;;;;;;;7328036;19;154377;-16
2022/06/07 00:53:47;;;;;;;2.65;2.03;;;;;;;;;;7326940;19;153618;-16
2022/06/07 00:56:27;;;;;;;2.83;2.10;;;;;;;;;;7327712;19;163128;-16
2022/06/07 00:59:03;;;;;;;5.03;2.43;;;;;;;;;;7325900;19;162627;-16
2022/06/07 01:01:36;;;;;;;3.10;2.30;;;;;;;;;;7327694;19;154203;-27
2022/06/07 01:04:08;;;;;;;3.17;2.17;;;;;;;;;;7327874;19;153556;-16
2022/06/07 01:12:10;;;;;;;3.13;2.10;;;;;;;;;;7327180;19;154301;-16
2022/06/07 01:14:44;;;;;;;2.60;2.38;;;;;;;;;;7327450;19;153624;-16
2022/06/07 01:17:16;;;;;;;3.28;2.13;;;;;;;;;;7327062;19;162091;-16
2022/06/07 01:19:47;;;;;;;2.70;2.08;;;;;;;;;;7324738;19;162294;-17
2022/06/07 01:22:22;;;;;;;3.15;2.15;;;;;;;;;;7328569;19;154207;-17
2022/06/07 01:24:54;;;;;;;3.72;2.20;;;;;;;;;;7329357;19;153648;-17
2022/06/07 01:27:29;;;;;;;2.78;2.15;;;;;;;;;;7332994;19;133941;-17
2022/06/07 01:30:00;;;;;;;4.82;2.55;;;;;;;;;;7334876;19;162499;-18
2022/06/07 01:32:32;;;;;;;2.63;2.20;;;;;;;;;;7334132;19;154073;-17
2022/06/07 01:35:04;;;;;;;2.30;2.10;;;;;;;;;;7333858;19;153698;-17
2022/06/07 01:37:38;;;;;;;2.80;2.47;;;;;;;;;;7334524;19;161818;-17
2022/06/07 01:42:54;;;;;;;3.50;1.98;;;;;;;;;;7334838;19;154363;-16
2022/06/07 01:45:25;;;;;;;3.67;2.53;;;;;;;;;;7333355;19;153578;-18
2022/06/07 01:47:57;;;;;;;3.28;2.20;;;;;;;;;;7333044;19;161904;-17
2022/06/07 01:50:28;;;;;;;3.17;2.13;;;;;;;;;;7332962;19;162376;-17
2022/06/07 01:53:02;;;;;;;3.50;2.45;;;;;;;;;;7333624;19;154065;-17
2022/06/07 01:55:33;;;;;;;3.60;1.95;;;;;;;;;;7333180;19;153548;-17
2022/06/07 01:58:09;;;;;;;2.22;1.83;;;;;;;;;;7332882;19;161833;-17
2022/06/07 02:00:40;;;;;;;2.65;2.22;;;;;;;;;;7330391;19;162426;-17
2022/06/07 02:03:11;;;;;;;2.78;2.20;;;;;;;;;;7332996;19;153874;-16
2022/06/07 02:05:42;;;;;;;3.08;2.17;;;;;;;;;;7332842;19;153631;-17
2022/06/07 02:08:16;;;;;;;2.80;2.20;;;;;;;;;;7332192;19;161926;-22
2022/06/07 02:10:48;;;;;;;3.47;2.20;;;;;;;;;;7333505;19;162767;-18
2022/06/07 02:13:22;;;;;;;3.28;2.25;;;;;;;;;;7333778;19;154208;-18
2022/06/07 02:15:53;;;;;;;2.80;2.25;;;;;;;;;;7332733;19;153773;-17
2022/06/07 02:18:25;;;;;;;2.92;1.73;;;;;;;;;;7332132;19;161851;-16
2022/06/07 02:21:07;;;;;;;4.82;2.00;;;;;;;;;;7332447;19;162333;-17
2022/06/07 02:23:41;;;;;;;3.20;2.07;;;;;;;;;;7332711;19;154276;-17
2022/06/07 02:26:16;;;;;;;2.90;2.15;;;;;;;;;;7333821;19;153588;-17
2022/06/07 02:28:53;;;;;;;3.08;2.10;;;;;;;;;;7333227;19;161835;-17
2022/06/07 02:31:26;;;;;;;3.42;2.33;;;;;;;;;;7337572;19;162627;-17
2022/06/07 02:34:00;;;;;;;2.05;1.85;;;;;;;;;;7332364;19;154213;-17
2022/06/07 02:36:33;;;;;;;3.38;2.35;;;;;;;;;;7329189;19;153587;-17
2022/06/07 02:39:07;;;;;;;2.35;2.15;;;;;;;;;;7331038;19;161896;-17
2022/06/07 02:41:38;;;;;;;2.58;1.83;;;;;;;;;;7334855;19;162534;-16
2022/06/07 02:44:12;;;;;;;3.20;2.00;;;;;;;;;;7331724;19;154191;-17
2022/06/07 02:46:43;;;;;;;2.45;1.92;;;;;;;;;;7331800;19;153605;-17
2022/06/07 02:49:16;;;;;;;1.95;1.85;;;;;;;;;;7331352;19;162284;-17
2022/06/07 02:51:48;;;;;;;2.22;2.03;;;;;;;;;;7331315;19;162421;-16
2022/06/07 02:54:30;;;;;;;1.70;1.60;;;;;;;;;;7330093;19;154136;-17
2022/06/07 02:57:02;;;;;;;1.98;1.85;;;;;;;;;;7331487;19;153576;-17
2022/06/07 02:59:33;;;;;;;2.33;2.00;;;;;;;;;;7330295;19;161896;-16
2022/06/07 03:02:06;;;;;;;2.15;1.80;;;;;;;;;;7330962;19;162413;-16
2022/06/07 03:04:38;;;;;;;2.47;1.80;;;;;;;;;;7331735;19;154146;-17
2022/06/07 03:07:11;;;;;;;2.42;2.15;;;;;;;;;;7331220;19;153509;-16
2022/06/07 03:09:45;;;;;;;3.20;2.17;;;;;;;;;;7330702;19;161674;-17
2022/06/07 03:12:17;;;;;;;1.77;1.67;;;;;;;;;;7330697;19;162667;-17
2022/06/07 03:14:48;;;;;;;3.10;2.10;;;;;;;;;;7331364;19;154062;-17
2022/06/07 03:17:21;;;;;;;1.70;1.60;;;;;;;;;;7330951;19;153840;-16
2022/06/07 03:19:52;;;;;;;2.42;2.22;;;;;;;;;;7329271;19;161889;-16
2022/06/07 03:22:25;;;;;;;1.65;1.55;;;;;;;;;;7330110;19;162409;-16
2022/06/07 03:25:04;;;;;;;2.45;1.92;;;;;;;;;;7330477;19;154078;-16
2022/06/07 03:27:39;;;;;;;2.13;1.80;;;;;;;;;;7330467;19;153928;-16
2022/06/07 03:30:15;;;;;;;2.35;2.15;;;;;;;;;;7330049;19;161925;-16
2022/06/07 03:32:48;;;;;;;2.42;1.88;;;;;;;;;;7330127;19;162430;-17
2022/06/07 03:35:20;;;;;;;2.70;2.23;;;;;;;;;;7331702;19;154100;-16
2022/06/07 03:37:52;;;;;;;2.63;2.05;;;;;;;;;;7330149;19;153635;-16
2022/06/07 03:43:11;;;;;;;1.90;1.70;;;;;;;;;;7329812;19;162479;-16
2022/06/07 03:45:44;;;;;;;2.75;2.00;;;;;;;;;;7331215;19;153856;-17
2022/06/07 03:48:19;;;;;;;3.60;2.10;;;;;;;;;;7328653;19;153813;-16
2022/06/07 03:50:53;;;;;;;2.05;1.80;;;;;;;;;;7329484;19;162366;-16
2022/06/07 03:53:26;;;;;;;2.00;1.77;;;;;;;;;;7327777;19;162465;-16
2022/06/07 03:56:00;;;;;;;2.17;1.83;;;;;;;;;;7329707;19;154140;-17
2022/06/07 03:58:38;;;;;;;2.05;1.75;;;;;;;;;;7329561;19;153662;-17
2022/06/07 04:01:13;;;;;;;2.10;1.90;;;;;;;;;;7327843;19;161886;-17
2022/06/07 04:03:45;;;;;;;2.42;1.70;;;;;;;;;;7330457;19;162426;-16
2022/06/07 04:06:21;;;;;;;3.20;2.03;;;;;;;;;;7329757;19;154337;-16
2022/06/07 04:08:55;;;;;;;3.38;1.63;;;;;;;;;;7329599;19;153742;-16
2022/06/07 04:11:30;;;;;;;2.72;2.00;;;;;;;;;;7329136;19;162006;-17
2022/06/07 04:14:05;;;;;;;2.53;1.77;;;;;;;;;;7328961;19;162537;-16
2022/06/07 04:16:36;;;;;;;1.55;1.45;;;;;;;;;;7329480;19;154038;-16
2022/06/07 04:19:23;;;;;;;1.70;1.60;;;;;;;;;;7329249;19;153643;-17
2022/06/07 04:21:54;;;;;;;3.25;1.80;;;;;;;;;;7327724;19;161941;-16
2022/06/07 04:24:36;;;;;;;2.90;2.00;;;;;;;;;;7328849;19;162572;-16
2022/06/07 04:27:10;;;;;;;2.50;1.73;;;;;;;;;;7329157;19;154576;-16
2022/06/07 04:29:46;;;;;;;1.63;1.52;;;;;;;;;;7328877;19;153539;-16
2022/06/07 04:32:18;;;;;;;2.15;1.95;;;;;;;;;;7328417;19;161958;-16
2022/06/07 04:34:55;;;;;;;2.47;1.80;;;;;;;;;;7328245;19;162569;-17
2022/06/07 04:37:29;;;;;;;2.03;1.55;;;;;;;;;;7332508;19;154166;-16
2022/06/07 04:40:06;;;;;;;1.60;1.50;;;;;;;;;;7328633;19;153661;-17
2022/06/07 04:42:41;;;;;;;2.00;1.67;;;;;;;;;;7328066;19;161843;-16
2022/06/07 04:45:18;;;;;;;2.08;1.80;;;;;;;;;;7327795;19;162592;-17
2022/06/07 04:48:03;;;;;;;2.35;1.92;;;;;;;;;;7333209;19;154076;-17
2022/06/07 04:50:38;;;;;;;2.15;1.50;;;;;;;;;;7328175;19;154056;-17
2022/06/07 04:53:12;;;;;;;2.70;1.73;;;;;;;;;;7326587;19;161977;-18
2022/06/07 04:55:43;;;;;;;3.15;1.70;;;;;;;;;;7327573;19;162814;-15
2022/06/07 04:58:17;;;;;;;1.70;1.55;;;;;;;;;;7327992;19;154233;-17
2022/06/07 05:00:53;;;;;;;1.40;1.30;;;;;;;;;;7332236;19;153763;-17
2022/06/07 05:03:24;;;;;;;2.20;1.73;;;;;;;;;;7335652;19;163337;-17
2022/06/07 05:05:56;;;;;;;2.90;1.80;;;;;;;;;;7334400;19;162408;-17
2022/06/07 05:08:27;;;;;;;1.88;1.70;;;;;;;;;;7334679;19;154387;-17
2022/06/07 05:10:59;;;;;;;1.83;1.63;;;;;;;;;;7334789;19;153705;-16
2022/06/07 05:13:34;;;;;;;2.08;1.60;;;;;;;;;;7334113;19;161926;-16
2022/06/07 05:16:06;;;;;;;1.95;1.70;;;;;;;;;;7334151;19;162410;-17
2022/06/07 05:18:38;;;;;;;;;;;;;;;;;;7334979;19;154143;-17
2022/06/07 05:21:12;;;;;;;1.95;1.60;;;;;;;;;;7333701;19;153710;-17
2022/06/07 05:23:44;;;;;;;2.97;2.00;;;;;;;;;;7333773;19;161897;-17
2022/06/07 05:26:23;;;;;;;1.95;1.83;;;;;;;;;;7333661;19;162558;-16
2022/06/07 05:28:59;;;;;;;1.83;1.70;;;;;;;;;;7335270;19;154036;-17
2022/06/07 05:31:31;;;;;;;1.67;1.58;;;;;;;;;;7333989;19;153651;-16
2022/06/07 05:34:03;;;;;;;2.25;1.52;;;;;;;;;;7333283;19;162281;-17
2022/06/07 05:36:35;;;;;;;1.80;1.70;;;;;;;;;;7333358;19;162490;-17
2022/06/07 05:39:08;;;;;;;1.83;1.50;;;;;;;;;;7333768;19;154079;-17
2022/06/07 05:41:40;;;;;;;1.75;1.60;;;;;;;;;;7332852;19;153721;-16
2022/06/07 05:44:22;;;;;;;2.03;1.80;;;;;;;;;;7333125;19;161827;-17
2022/06/07 05:46:56;;;;;;;2.25;1.60;;;;;;;;;;7332972;19;162460;-17
2022/06/07 05:49:51;;;;;;;2.00;1.63;;;;;;;;;;7333441;19;154192;-16
2022/06/07 05:52:26;;;;;;;1.58;1.48;;;;;;;;;;7332812;19;153636;-18
2022/06/07 05:54:59;;;;;;;2.03;1.73;;;;;;;;;;7332705;19;161571;-16
2022/06/07 05:57:33;;;;;;;2.53;1.63;;;;;;;;;;7333931;19;162312;-15
2022/06/07 06:00:11;;;;;;;1.95;1.60;;;;;;;;;;7332970;19;154357;-16
2022/06/07 06:02:48;;;;;;;1.75;1.50;;;;;;;;;;7331369;19;153671;-16
2022/06/07 06:05:38;;;;;;;2.83;1.73;;;;;;;;;;7332338;19;162344;-16
2022/06/07 06:11:09;;;;;;;3.75;1.77;;;;;;;;;;7332320;19;154088;-16
2022/06/07 06:13:46;;;;;;;2.03;1.60;;;;;;;;;;7332313;19;153658;-16
2022/06/07 06:16:22;;;;;;;1.98;1.70;;;;;;;;;;7332272;19;161778;-17
2022/06/07 06:19:00;;;;;;;1.65;1.55;;;;;;;;;;7332063;19;162442;-16
2022/06/07 06:21:46;;;;;;;1.90;1.70;;;;;;;;;;7332159;19;153909;-16
2022/06/07 06:24:23;;;;;;;1.88;1.55;;;;;;;;;;7332280;19;153625;-16
2022/06/07 06:26:56;;;;;;;1.90;1.60;;;;;;;;;;7331861;19;162018;-16
2022/06/07 06:29:32;;;;;;;1.95;1.63;;;;;;;;;;7336230;19;162314;-16
2022/06/07 06:32:08;;;;;;;;;;;;;;;;;;7332629;19;154109;-16
2022/06/07 06:34:41;;;;;;;2.25;1.70;;;;;;;;;;7332163;19;153719;-16
2022/06/07 06:37:14;;;;;;;;;;;;;;;;;;7332236;19;161681;-16
2022/06/07 06:39:48;;;;;;;2.03;1.45;;;;;;;;;;7336885;19;162492;-16
2022/06/07 06:42:19;;;;;;;2.60;1.50;;;;;;;;;;7332124;19;154201;-16
2022/06/07 06:45:15;;;;;;;2.55;1.60;;;;;;;;;;7332546;19;153574;-16
2022/06/07 06:47:53;;;;;;;1.88;1.40;;;;;;;;;;7331438;19;161687;-16
2022/06/07 06:50:27;;;;;;;1.45;1.35;;;;;;;;;;7331120;19;162305;-17
2022/06/07 06:53:02;;;;;;;1.90;1.70;;;;;;;;;;7330486;19;154103;-16
2022/06/07 06:55:35;;;;;;;2.40;1.55;;;;;;;;;;7331188;19;153540;-16
2022/06/07 06:58:11;;;;;;;2.97;1.55;;;;;;;;;;7330886;19;161785;-16
2022/06/07 07:00:46;;;;;;;2.42;1.65;;;;;;;;;;7331477;19;162348;-16
2022/06/07 07:03:24;;;;;;;2.70;1.85;;;;;;;;;;7329572;19;154093;-16
2022/06/07 07:05:58;;;;;;;1.83;1.58;;;;;;;;;;7331411;19;153589;-16
2022/06/07 07:08:35;;;;;;;1.75;1.65;;;;;;;;;;7331915;19;162013;-16
2022/06/07 07:11:11;;;;;;;4.80;1.92;;;;;;;;;;7330601;19;162404;-16
2022/06/07 07:13:45;;;;;;;2.97;1.55;;;;;;;;;;7332302;19;153987;-15
2022/06/07 07:16:21;;;;;;;2.13;1.80;;;;;;;;;;7330821;19;153776;-16
2022/06/07 07:18:56;;;;;;;1.90;1.60;;;;;;;;;;7330387;19;161673;-16
2022/06/07 07:21:30;;;;;;;2.38;1.75;;;;;;;;;;7330424;19;162507;-19
2022/06/07 07:24:10;;;;;;;2.88;2.08;;;;;;;;;;7326868;19;154207;-16
2022/06/07 07:26:45;;;;;;;6.43;2.20;;;;;;;;;;7330744;19;153653;-16
2022/06/07 07:29:19;;;;;;;7.57;2.20;;;;;;;;;;7330198;19;162053;-16
2022/06/07 07:31:53;;;;;;;12.13;3.17;;;;;;;;;;7330254;19;162673;-18
2022/06/07 07:34:34;;;;;;;7.50;2.75;;;;;;;;;;7330405;19;153997;-17
2022/06/07 07:37:10;;;;;;;9.07;3.10;;;;;;;;;;7331438;19;153686;-17
2022/06/07 07:39:45;;;;;;;14.60;3.22;;;;;;;;;;7330937;19;161992;-16
2022/06/07 07:42:22;;;;;;;6.80;2.85;;;;;;;;;;7330508;19;162320;-17
2022/06/07 07:45:04;;;;;;;;;;;;;;;;;;7330777;19;154382;-17
2022/06/07 07:47:36;;;;;;;7.95;3.13;;;;;;;;;;7330201;19;153605;-16
2022/06/07 07:50:11;;;;;;;6.57;3.38;;;;;;;;;;7329586;19;162654;-16
2022/06/07 07:52:49;;;;;;;8.32;3.13;;;;;;;;;;7328842;19;162395;-16
2022/06/07 07:55:21;;;;;;;7.93;2.97;;;;;;;;;;7329919;19;154118;-17
2022/06/07 07:57:55;;;;;;;5.82;2.75;;;;;;;;;;7329762;19;153670;-16
2022/06/07 08:00:28;;;;;;;7.25;3.00;;;;;;;;;;7330745;19;161845;-18
2022/06/07 08:03:07;;;;;;;5.03;2.65;;;;;;;;;;7328547;19;162734;-16
2022/06/07 08:05:48;;;;;;;7.55;3.17;;;;;;;;;;7329695;19;154237;-17
2022/06/07 08:08:20;;;;;;;16.25;3.63;;;;;;;;;;7330806;19;153789;-17
2022/06/07 08:10:51;;;;;;;6.97;3.03;;;;;;;;;;7329377;19;161875;-17
2022/06/07 08:13:22;;;;;;;9.27;3.05;;;;;;;;;;7334260;19;162545;-17
2022/06/07 08:15:53;;;;;;;7.72;2.33;;;;;;;;;;7330696;19;154211;-17
2022/06/07 08:18:25;;;;;;;6.38;2.67;;;;;;;;;;7330390;19;154889;-17
2022/06/07 08:21:04;;;;;;;12.65;3.10;;;;;;;;;;7330817;19;162040;-17
2022/06/07 08:23:38;;;;;;;3.80;2.65;;;;;;;;;;7328798;19;162406;-17
2022/06/07 08:26:10;;;;;;;6.18;2.65;;;;;;;;;;7330217;19;154034;-17
2022/06/07 08:28:47;;;;;;;7.55;3.10;;;;;;;;;;7330195;19;153509;-17
2022/06/07 08:31:21;;;;;;;5.43;2.88;;;;;;;;;;7333500;19;161939;-18
2022/06/07 08:39:24;;;;;;;5.32;2.53;;;;;;;;;;7329743;19;153590;-16
2022/06/07 08:41:58;;;;;;;6.28;2.47;;;;;;;;;;7329217;19;161993;-17
2022/06/07 08:44:33;;;;;;;3.67;2.63;;;;;;;;;;7327260;19;162427;-17
2022/06/07 08:47:10;;;;;;;3.20;2.38;;;;;;;;;;7329602;19;154270;-17
2022/06/07 08:49:42;;;;;;;7.95;2.97;;;;;;;;;;7328139;19;153859;-17
2022/06/07 08:52:20;;;;;;;3.13;2.15;;;;;;;;;;7328679;19;161916;-17
2022/06/07 08:54:53;;;;;;;5.13;2.50;;;;;;;;;;7327877;19;162463;-16
2022/06/07 08:57:29;;;;;;;6.15;2.05;;;;;;;;;;7329143;19;154000;-16
2022/06/07 09:00:15;;;;;;;3.67;2.13;;;;;;;;;;7328897;19;153824;-17
2022/06/07 09:03:08;;;;;;;5.38;2.78;;;;;;;;;;7328545;19;161985;-17
2022/06/07 09:05:39;;;;;;;6.45;2.53;;;;;;;;;;7328225;19;162364;-17
2022/06/07 09:08:16;;;;;;;4.60;2.33;;;;;;;;;;7328657;19;154056;-17
2022/06/07 09:13:37;;;;;;;3.83;2.58;;;;;;;;;;7328458;19;161945;-17
2022/06/07 09:16:08;;;;;;;7.82;2.83;;;;;;;;;;7328204;19;162359;-17
2022/06/07 09:18:45;;;;;;;5.57;3.10;;;;;;;;;;7328545;19;154188;-17
2022/06/07 09:21:26;;;;;;;4.03;2.25;;;;;;;;;;7327419;19;153644;-17
2022/06/07 09:24:02;;;;;;;6.50;3.13;;;;;;;;;;7327327;19;161860;-17
2022/06/07 09:26:39;;;;;;;5.75;2.22;;;;;;;;;;7326777;19;162479;-17
2022/06/07 09:29:17;;;;;;;7.32;3.10;;;;;;;;;;7328300;19;154395;-18
2022/06/07 09:31:50;;;;;;;3.03;2.30;;;;;;;;;;7328029;19;153511;-17
2022/06/07 09:34:28;;;;;;;6.35;2.40;;;;;;;;;;7327526;19;161903;-17
2022/06/07 09:37:04;;;;;;;5.57;2.40;;;;;;;;;;7327635;19;162562;-17
2022/06/07 09:39:40;;;;;;;4.82;2.60;;;;;;;;;;7327996;19;154284;-17
2022/06/07 09:42:20;;;;;;;4.45;2.53;;;;;;;;;;7327904;19;153521;-17
2022/06/07 09:44:59;;;;;;;3.70;2.33;;;;;;;;;;7326144;19;162050;-17
2022/06/07 09:47:31;;;;;;;5.82;2.30;;;;;;;;;;7334145;19;162413;-17
2022/06/07 09:50:13;;;;;;;6.15;2.78;;;;;;;;;;7334774;19;154353;-17
2022/06/07 09:52:50;;;;;;;3.83;2.08;;;;;;;;;;7332538;19;153592;-16
2022/06/07 09:55:32;;;;;;;5.05;2.35;;;;;;;;;;7334007;19;161827;-16
2022/06/07 09:58:19;;;;;;;8.27;2.83;;;;;;;;;;7333948;19;162471;-16
2022/06/07 10:00:56;;;;;;;4.97;2.50;;;;;;;;;;7334310;19;154108;-16
2022/06/07 10:03:36;;;;;;;3.03;2.63;;;;;;;;;;7334320;19;153640;-16
2022/06/07 10:06:17;;;;;;;4.00;2.35;;;;;;;;;;7331473;19;162162;-16
2022/06/07 10:09:03;;;;;;;5.35;2.30;;;;;;;;;;7333762;19;162522;-16
2022/06/07 10:11:43;;;;;;;4.63;3.15;;;;;;;;;;7333895;19;154662;-16
2022/06/07 10:14:26;;;;;;;5.43;2.80;;;;;;;;;;7333809;19;153615;-17
2022/06/07 10:17:12;;;;;;;6.00;2.85;;;;;;;;;;7335246;19;161995;-17
2022/06/07 10:19:54;;;;;;;4.05;2.50;;;;;;;;;;7333308;19;162443;-16
2022/06/07 10:22:39;;;;;;;3.85;2.40;;;;;;;;;;7333538;19;154458;-17
2022/06/07 10:25:19;;;;;;;3.38;2.72;;;;;;;;;;7332400;19;153777;-17
2022/06/07 10:28:03;;;;;;;2.50;2.30;;;;;;;;;;7333322;19;161916;-17
2022/06/07 10:30:41;;;;;;;2.90;2.40;;;;;;;;;;7333103;19;162551;-16
2022/06/07 10:33:42;;;;;;;5.07;2.40;;;;;;;;;;7333189;19;154294;-17
2022/06/07 10:36:31;;;;;;;4.25;2.88;;;;;;;;;;7333269;19;153571;-17
2022/06/07 10:39:26;;;;;;;3.70;2.58;;;;;;;;;;7332709;19;161847;-17
2022/06/07 10:42:08;;;;;;;3.83;2.70;;;;;;;;;;7332628;19;162665;-17
2022/06/07 10:44:46;;;;;;;3.85;2.63;;;;;;;;;;7331244;19;154005;-17
2022/06/07 10:47:25;;;;;;;4.65;2.80;;;;;;;;;;7332927;19;153453;-17
2022/06/07 10:50:03;;;;;;;3.70;2.53;;;;;;;;;;7332744;19;161805;-17
2022/06/07 10:52:41;;;;;;;4.78;2.72;;;;;;;;;;7331819;19;162618;-17
2022/06/07 10:55:24;;;;;;;6.05;2.83;;;;;;;;;;7332358;19;154000;-17
2022/06/07 10:57:59;;;;;;;;;;;;;;;;;;7330478;19;154037;-17
2022/06/07 11:00:38;;;;;;;4.53;2.38;;;;;;;;;;7332402;19;162143;-16
2022/06/07 11:03:20;;;;;;;4.55;2.88;;;;;;;;;;7332203;19;162368;-16
2022/06/07 11:11:33;;;;;;;5.80;2.40;;;;;;;;;;7329851;19;162311;-17
2022/06/07 11:14:20;;;;;;;6.03;3.22;;;;;;;;;;7331592;19;162663;-17
2022/06/07 11:17:01;;;;;;;5.68;2.97;;;;;;;;;;7331975;19;154347;-17
2022/06/07 11:19:34;;;;;;;4.53;2.75;;;;;;;;;;7332014;19;153529;-17
2022/06/07 11:22:09;;;;;;;4.30;2.83;;;;;;;;;;7331560;19;161747;-16
2022/06/07 11:24:56;;;;;;;4.63;2.92;;;;;;;;;;7331150;19;163511;-17
2022/06/07 11:27:28;;;;;;;4.97;2.97;;;;;;;;;;7331848;19;154212;-16
2022/06/07 11:30:28;;;;;;;4.47;2.50;;;;;;;;;;7330407;19;153603;-17
2022/06/07 11:33:02;;;;;;;3.05;2.38;;;;;;;;;;7329508;19;162185;-18
2022/06/07 11:35:51;;;;;;;3.53;2.55;;;;;;;;;;7331153;19;162316;-17
2022/06/07 11:38:32;;;;;;;4.85;2.60;;;;;;;;;;7330451;19;154247;-16
2022/06/07 11:41:41;;;;;;;3.33;2.40;;;;;;;;;;7331302;19;153560;-16
2022/06/07 11:44:32;;;;;;;4.03;2.50;;;;;;;;;;7329628;19;161870;-16
2022/06/07 11:47:22;;;;;;;3.78;2.40;;;;;;;;;;7327083;19;162454;-17
2022/06/07 11:50:15;;;;;;;3.70;2.42;;;;;;;;;;7331150;19;153953;-16
2022/06/07 11:53:12;;;;;;;2.70;2.50;;;;;;;;;;7330253;19;153625;-17
2022/06/07 11:55:45;;;;;;;3.42;2.17;;;;;;;;;;7329132;19;161877;-16
2022/06/07 11:58:17;;;;;;;6.45;2.33;;;;;;;;;;7330475;19;162350;-17
2022/06/07 12:00:51;;;;;;;5.15;2.70;;;;;;;;;;7330879;19;154079;-18
2022/06/07 12:03:35;;;;;;;7.20;2.95;;;;;;;;;;7330808;19;153513;-17
2022/06/07 12:06:26;;;;;;;3.40;2.15;;;;;;;;;;7328994;19;162116;-17
2022/06/07 12:09:05;;;;;;;3.83;2.58;;;;;;;;;;7333792;19;162835;-17
2022/06/07 12:11:44;;;;;;;3.50;2.47;;;;;;;;;;7330515;19;154223;-16
2022/06/07 12:14:36;;;;;;;3.85;2.47;;;;;;;;;;7328910;19;153465;-19
2022/06/07 12:17:21;;;;;;;;;;;;;;;;;;7334452;19;161808;-17
2022/06/07 12:19:53;;;;;;;4.63;2.47;;;;;;;;;;7329642;19;162713;-17
2022/06/07 12:22:32;;;;;;;16.45;2.80;;;;;;;;;;7333674;19;154243;-16
2022/06/07 12:25:14;;;;;;;4.10;2.25;;;;;;;;;;7330372;19;153684;-17
2022/06/07 12:27:49;;;;;;;5.10;2.60;;;;;;;;;;7326224;19;163737;-17
2022/06/07 12:30:29;;;;;;;3.20;2.20;;;;;;;;;;7329928;19;162343;-16
2022/06/07 12:33:15;;;;;;;3.72;2.20;;;;;;;;;;7330222;19;154069;-17
2022/06/07 12:35:56;;;;;;;7.35;2.45;;;;;;;;;;7327820;19;153523;-17
2022/06/07 12:38:31;;;;;;;2.60;1.98;;;;;;;;;;7332582;19;161941;-17
2022/06/07 12:41:05;;;;;;;4.88;2.35;;;;;;;;;;7332415;19;162378;-17
2022/06/07 12:43:46;;;;;;;3.03;1.92;;;;;;;;;;7330991;19;154043;-17
2022/06/07 12:46:23;;;;;;;3.13;2.53;;;;;;;;;;7328233;19;153888;-17
2022/06/07 12:48:59;;;;;;;3.70;1.88;;;;;;;;;;7328020;19;162073;-17
2022/06/07 12:51:35;;;;;;;5.35;2.50;;;;;;;;;;7327756;19;162718;-17
2022/06/07 12:54:17;;;;;;;3.70;1.95;;;;;;;;;;7328151;19;154072;-17
2022/06/07 12:56:53;;;;;;;5.65;2.05;;;;;;;;;;7326194;19;153605;-16
2022/06/07 12:59:36;;;;;;;4.88;2.30;;;;;;;;;;7329504;19;161800;-17
2022/06/07 13:02:16;;;;;;;3.97;1.98;;;;;;;;;;7333079;19;162786;-17
2022/06/07 13:04:50;;;;;;;4.00;1.90;;;;;;;;;;7330597;19;153997;-17
2022/06/07 13:07:24;;;;;;;54.42;19.40;;;;;;;;;;7325888;19;153540;-17
2022/06/07 13:10:19;;;;;;;125.60;52.35;;;;;;;;;;7329805;19;161975;-17
2022/06/07 13:12:54;;;;;;;160.93;75.78;;;;;;;;;;7327307;19;162321;-17
2022/06/07 13:15:28;;;;;;;172.23;76.28;;;;;;;;;;7331640;19;154293;-17
2022/06/07 13:18:02;;;;;;;178.00;84.35;;;;;;;;;;7330748;19;153697;-17
2022/06/07 13:20:38;;;;;;;184.30;82.85;;;;;;;;;;7331141;19;161730;-17
2022/06/07 13:23:25;;;;;;;170.68;82.10;;;;;;;;;;7333922;19;162398;-16
2022/06/07 13:26:15;;;;;;;156.18;72.95;;;;;;;;;;7333787;19;154161;-17
2022/06/07 13:28:48;;;;;;;146.70;69.80;;;;;;;;;;7334001;19;153701;-18
2022/06/07 13:31:29;;;;;;;150.30;70.60;;;;;;;;;;7334611;19;161993;-17
2022/06/07 13:34:07;;;;;;;143.15;68.25;;;;;;;;;;7331879;19;162647;-17
2022/06/07 13:36:40;;;;;;;129.20;62.80;;;;;;;;;;7334644;19;154162;-17
2022/06/07 13:39:24;;;;;;;140.00;59.92;;;;;;;;;;7334956;19;153942;-18
2022/06/07 13:42:10;;;;;;;123.72;58.80;;;;;;;;;;7334429;19;162669;-16
2022/06/07 13:44:45;;;;;;;123.93;56.45;;;;;;;;;;7334314;19;162366;-17
2022/06/07 13:47:26;;;;;;;119.35;55.03;;;;;;;;;;7332504;19;154350;-18
2022/06/07 13:55:50;;;;;;;98.90;46.85;;;;;;;;;;7334198;19;162463;-17
2022/06/07 13:58:26;;;;;;;94.72;44.70;;;;;;;;;;7334393;19;154059;-17
2022/06/07 14:01:05;;;;;;;95.05;45.13;;;;;;;;;;7334093;19;153708;-17
2022/06/07 14:03:39;;;;;;;81.50;40.85;;;;;;;;;;7335921;19;162089;-18
2022/06/07 14:06:23;;;;;;;81.82;40.72;;;;;;;;;;7333632;19;162297;-16
2022/06/07 14:08:56;;;;;;;68.50;34.15;;;;;;;;;;7333989;19;154098;-17
2022/06/07 14:11:27;;;;;;;69.55;35.45;;;;;;;;;;7334200;19;153606;-16
2022/06/07 14:14:02;;;;;;;65.38;33.15;;;;;;;;;;7333590;19;162206;-16
2022/06/07 14:16:36;;;;;;;74.00;34.60;;;;;;;;;;7333399;19;162368;-16
2022/06/07 14:19:10;;;;;;;64.22;31.83;;;;;;;;;;7333773;19;154024;-16
2022/06/07 14:21:45;;;;;;;62.45;30.15;;;;;;;;;;7333918;19;153759;-17
2022/06/07 14:24:23;;;;;;;58.05;29.92;;;;;;;;;;7333412;19;161876;-17
2022/06/07 14:26:58;;;;;;;53.78;26.92;;;;;;;;;;7332749;19;162368;-17
2022/06/07 14:29:32;;;;;;;54.55;27.33;;;;;;;;;;7333629;19;154182;-16
2022/06/07 14:32:10;;;;;;;53.72;26.40;;;;;;;;;;7331694;19;153822;-16
2022/06/07 14:34:41;;;;;;;47.70;25.02;;;;;;;;;;7334176;19;161880;-16
2022/06/07 14:37:15;;;;;;;43.03;23.13;;;;;;;;;;7332802;19;162400;-16
2022/06/07 14:39:47;;;;;;;44.47;22.27;;;;;;;;;;7333138;19;154232;-16
2022/06/07 14:42:19;;;;;;;42.35;22.25;;;;;;;;;;7331739;19;153661;-16
2022/06/07 14:44:52;;;;;;;48.22;22.17;;;;;;;;;;7332841;19;161714;-16
2022/06/07 14:47:26;;;;;;;39.80;19.60;;;;;;;;;;7332018;19;162573;-17
2022/06/07 14:49:59;;;;;;;36.05;19.20;;;;;;;;;;7332049;19;154032;-16
2022/06/07 14:52:34;;;;;;;34.85;18.90;;;;;;;;;;7332053;19;153631;-16
2022/06/07 14:55:06;;;;;;;31.75;17.60;;;;;;;;;;7332283;19;161982;-16
2022/06/07 14:57:43;;;;;;;33.42;17.38;;;;;;;;;;7332357;19;162312;-24
2022/06/07 15:00:20;;;;;;;29.85;16.15;;;;;;;;;;7332482;19;154065;-16
2022/06/07 15:02:58;;;;;;;30.33;16.42;;;;;;;;;;7332463;19;153790;-16
2022/06/07 15:05:33;;;;;;;33.33;16.58;;;;;;;;;;7332114;19;161716;-16
2022/06/07 15:08:08;;;;;;;33.42;16.30;;;;;;;;;;7329894;19;162968;-17
2022/06/07 15:10:42;;;;;;;32.75;14.60;;;;;;;;;;7332343;19;154045;-16
2022/06/07 15:13:22;;;;;;;28.58;14.85;;;;;;;;;;7331142;19;153419;-17
2022/06/07 15:16:03;;;;;;;26.52;12.90;;;;;;;;;;7331778;19;161793;-16
2022/06/07 15:18:40;;;;;;;25.13;13.18;;;;;;;;;;7330461;19;162541;-19
2022/06/07 15:21:17;;;;;;;22.80;11.85;;;;;;;;;;7332070;19;154074;-16
2022/06/07 15:23:48;;;;;;;27.98;13.32;;;;;;;;;;7332118;19;153521;-17
2022/06/07 15:26:26;;;;;;;18.20;10.60;;;;;;;;;;7331546;19;162085;-17
2022/06/07 15:28:57;;;;;;;22.52;11.13;;;;;;;;;;7329781;19;162246;-16
2022/06/07 15:31:31;;;;;;;20.38;11.45;;;;;;;;;;7331898;19;154109;-16
2022/06/07 15:34:06;;;;;;;16.95;9.75;;;;;;;;;;7331793;19;153343;-16
2022/06/07 15:36:39;;;;;;;17.88;10.18;;;;;;;;;;7331239;19;161985;-16
2022/06/07 15:39:17;;;;;;;20.63;10.20;;;;;;;;;;7331406;19;162293;-17
2022/06/07 15:44:54;;;;;;;16.17;9.15;;;;;;;;;;7328141;19;153872;-16
2022/06/07 15:47:28;;;;;;;16.03;9.20;;;;;;;;;;7331004;19;161883;-18
2022/06/07 15:50:00;;;;;;;15.80;8.63;;;;;;;;;;7328119;19;162395;-16
2022/06/07 15:52:35;;;;;;;14.38;8.13;;;;;;;;;;7330771;19;154095;-17
2022/06/07 15:55:07;;;;;;;13.10;7.85;;;;;;;;;;7332274;19;153548;-16